Time;durP1;ratioP1;P1;durP2;ratioP2;P2;SDS_P1;SDS_P2;PMS_P1;PMS_P2;Temp;Humidity;BMP_temperature;BMP_pressure;BME280_temperature;BME280_humidity;BME280_pressure;Samples;Min_cycle;Max_cycle;Signal;HPM_P1;HPM_P2
2023/12/20 00:00:07;;;;;;;36.08;20.90;;;8.40;99.90;;;8.43;93.72;100415.66;5060314;28;20500;-83
2023/12/20 00:02:34;;;;;;;42.83;21.63;;;8.40;99.90;;;8.43;93.65;100412.16;5076607;28;20059;-83
2023/12/20 00:05:02;;;;;;;44.58;21.67;;;8.40;99.90;;;8.44;93.57;100419.97;5059905;28;20040;-83
2023/12/20 00:07:32;;;;;;;39.20;21.23;;;8.80;99.90;;;8.44;93.28;100413.81;5060338;28;20039;-83
2023/12/20 00:09:59;;;;;;;36.90;19.85;;;8.40;99.90;;;8.43;93.30;100410.34;5076748;28;20044;-83
2023/12/20 00:12:29;;;;;;;54.92;21.67;;;8.40;99.90;;;8.49;93.18;100412.22;5096259;28;20048;-83
2023/12/20 00:14:57;;;;;;;36.60;20.58;;;8.50;99.90;;;8.51;92.85;100412.81;5096138;28;20044;-83
2023/12/20 00:17:24;;;;;;;34.45;19.27;;;8.50;99.90;;;8.54;92.57;100418.75;5096190;28;20059;-83
2023/12/20 00:19:52;;;;;;;38.42;20.98;;;8.50;99.90;;;8.52;92.32;100416.31;5079111;28;20503;-83
2023/12/20 00:22:19;;;;;;;47.15;19.88;;;8.50;99.90;;;8.56;92.25;100420.19;5096655;28;20105;-83
2023/12/20 00:24:47;;;;;;;33.85;18.00;;;8.50;99.90;;;8.52;91.81;100419.78;5111633;28;20548;-83
2023/12/20 00:27:15;;;;;;;35.22;18.15;;;8.50;99.90;;;8.54;91.67;100422.25;5079319;28;20051;-83
2023/12/20 00:29:47;;;;;;;31.65;17.13;;;8.50;99.90;;;8.47;91.26;100424.06;5095722;28;20134;-83
2023/12/20 00:32:17;;;;;;;33.95;16.88;;;8.40;99.90;;;8.39;91.15;100434.84;5094912;28;20044;-83
2023/12/20 00:34:45;;;;;;;30.35;15.48;;;8.40;99.90;;;8.32;91.06;100434.78;5095723;28;20423;-83
2023/12/20 00:37:13;;;;;;;33.70;16.83;;;8.40;99.90;;;8.30;90.84;100441.34;5094790;28;20040;-83
2023/12/20 00:39:40;;;;;;;35.30;16.92;;;8.40;99.90;;;8.30;91.02;100439.50;5095048;28;20128;-83
2023/12/20 00:42:08;;;;;;;33.00;17.13;;;8.30;99.90;;;8.28;91.06;100444.16;5096424;28;20113;-83
2023/12/20 00:44:36;;;;;;;30.52;15.77;;;8.30;99.90;;;8.20;90.74;100434.53;5076194;28;20048;-83
2023/12/20 00:47:05;;;;;;;29.35;15.50;;;8.30;99.90;;;8.23;91.08;100447.41;5075240;28;20049;-84
2023/12/20 00:49:33;;;;;;;37.83;15.02;;;8.30;99.90;;;8.14;90.72;100443.28;5076072;28;20049;-83
2023/12/20 00:52:00;;;;;;;29.45;14.15;;;8.20;99.90;;;8.21;90.91;100456.59;5077838;28;20053;-84
2023/12/20 00:54:30;;;;;;;27.90;13.80;;;8.20;99.90;;;8.21;90.99;100464.56;5077079;28;20107;-83
2023/12/20 00:56:58;;;;;;;40.22;14.80;;;8.20;99.90;;;8.22;90.61;100467.03;5059488;28;20067;-83
2023/12/20 00:59:25;;;;;;;27.13;12.57;;;8.20;99.90;;;8.24;90.86;100461.50;5059181;28;20047;-83
2023/12/20 01:01:52;;;;;;;25.77;12.13;;;8.30;99.90;;;8.25;90.17;100460.53;5077199;28;20044;-83
2023/12/20 01:04:22;;;;;;;21.50;11.57;;;8.30;99.90;;;8.26;90.07;100456.84;5059064;28;20059;-84
2023/12/20 01:06:49;;;;;;;27.58;12.27;;;8.30;99.90;;;8.25;89.62;100458.69;5075385;28;20041;-83
2023/12/20 01:09:16;;;;;;;24.65;11.20;;;8.20;99.90;;;8.30;89.71;100444.00;5075784;28;20044;-83
2023/12/20 01:11:46;;;;;;;23.38;10.23;;;8.30;99.90;;;8.22;89.15;100442.31;5058797;28;20052;-83
2023/12/20 01:14:13;;;;;;;23.13;10.10;;;8.20;99.90;;;8.19;89.00;100446.16;5075633;28;20052;-83
2023/12/20 01:16:43;;;;;;;23.27;9.85;;;8.20;99.90;;;8.23;89.28;100442.09;5075576;28;20094;-83
2023/12/20 01:19:10;;;;;;;23.60;11.35;;;8.20;99.90;;;8.18;88.21;100441.88;5075831;28;20104;-83
2023/12/20 01:21:40;;;;;;;25.98;10.38;;;8.10;99.90;;;8.22;88.73;100452.94;5075539;28;20059;-83
2023/12/20 01:24:08;;;;;;;24.58;11.35;;;8.10;99.90;;;8.24;88.31;100454.34;5076010;28;20511;-83
2023/12/20 01:26:35;;;;;;;23.77;10.80;;;8.10;99.90;;;8.18;87.49;100443.72;5075912;28;20075;-83
2023/12/20 01:29:02;;;;;;;25.45;10.80;;;8.10;99.90;;;8.22;88.01;100464.38;5079548;28;20048;-83
2023/12/20 01:31:30;;;;;;;21.08;9.82;;;8.20;99.90;;;8.18;87.48;100472.94;5079716;28;20090;-83
2023/12/20 01:33:57;;;;;;;26.15;10.52;;;8.10;99.90;;;8.17;87.13;100472.09;5081434;28;20084;-83
2023/12/20 01:36:24;;;;;;;24.50;10.00;;;8.10;99.90;;;8.11;86.44;100469.44;5079292;28;20041;-83
2023/12/20 01:38:53;;;;;;;21.08;10.60;;;8.00;99.90;;;8.12;86.53;100471.88;5080462;28;20442;-83
2023/12/20 01:41:21;;;;;;;24.10;9.90;;;8.00;99.90;;;8.14;86.58;100475.16;5081059;28;20044;-83
2023/12/20 01:43:49;;;;;;;20.38;9.60;;;8.00;99.90;;;8.17;86.67;100474.75;5080409;28;20515;-83
2023/12/20 01:46:18;;;;;;;24.80;10.85;;;8.10;99.90;;;8.12;86.31;100482.50;5044727;28;20036;-83
2023/12/20 01:48:45;;;;;;;22.17;10.38;;;8.00;99.90;;;8.08;86.19;100483.91;5078683;28;20048;-83
2023/12/20 01:51:13;;;;;;;28.98;11.35;;;8.00;99.90;;;8.12;86.51;100479.84;5078826;28;20052;-83
2023/12/20 01:53:42;;;;;;;27.67;11.10;;;8.00;99.90;;;8.13;86.02;100473.50;5062074;28;20051;-83
2023/12/20 01:56:12;;;;;;;24.40;10.82;;;8.10;99.90;;;8.17;86.40;100473.94;5080218;28;20044;-83
2023/12/20 01:58:44;;;;;;;26.98;11.65;;;8.10;99.90;;;8.11;85.91;100469.44;5078519;28;20066;-83
2023/12/20 02:01:13;;;;;;;23.83;11.45;;;8.00;99.90;;;7.98;85.89;100464.84;5078935;28;20040;-83
2023/12/20 02:03:41;;;;;;;25.48;12.20;;;8.00;99.90;;;8.06;86.39;100472.66;5078634;28;20443;-83
2023/12/20 02:06:10;;;;;;;22.95;10.35;;;8.00;99.90;;;8.05;85.86;100470.19;5062405;28;20068;-83
2023/12/20 02:08:38;;;;;;;29.77;10.35;;;8.00;99.90;;;8.04;85.75;100466.72;5078611;28;20040;-83
2023/12/20 02:11:05;;;;;;;23.05;10.02;;;7.90;99.90;;;8.04;84.97;100471.19;5061853;28;20049;-83
2023/12/20 02:13:34;;;;;;;23.52;9.18;;;7.90;99.90;;;7.83;83.86;100477.41;5080195;28;20046;-83
2023/12/20 02:16:02;;;;;;;18.63;7.82;;;7.70;99.90;;;7.87;84.81;100465.38;5078122;28;20458;-83
2023/12/20 02:18:30;;;;;;;20.30;8.20;;;7.70;99.90;;;7.92;85.00;100476.25;5058030;28;20044;-83
2023/12/20 02:20:57;;;;;;;20.48;7.65;;;7.70;99.90;;;7.92;84.86;100470.94;5059473;28;20559;-83
2023/12/20 02:23:26;;;;;;;20.48;8.32;;;7.80;99.90;;;7.91;84.91;100472.75;5058172;28;20045;-83
2023/12/20 02:25:53;;;;;;;21.42;7.90;;;7.80;99.90;;;7.95;84.75;100467.88;5059622;28;20044;-83
2023/12/20 02:28:21;;;;;;;21.77;8.27;;;7.80;99.90;;;7.96;84.82;100461.56;5067132;28;20037;-83
2023/12/20 02:30:51;;;;;;;19.98;7.88;;;7.80;99.90;;;7.92;84.09;100466.44;5078317;28;20090;-83
2023/12/20 02:33:18;;;;;;;19.88;8.20;;;7.80;99.90;;;7.90;84.28;100462.31;5078082;28;20079;-83
2023/12/20 02:35:46;;;;;;;20.42;8.52;;;7.80;99.90;;;7.83;84.28;100464.13;5078006;28;20442;-83
2023/12/20 02:38:13;;;;;;;23.90;9.18;;;7.70;99.90;;;7.67;84.16;100479.31;5076420;28;20083;-84
2023/12/20 02:40:42;;;;;;;25.08;9.13;;;7.60;99.90;;;7.72;85.42;100471.59;5077958;28;20040;-83
2023/12/20 02:43:13;;;;;;;21.00;8.65;;;7.60;99.90;;;7.76;85.39;100474.69;5079242;28;20080;-83
2023/12/20 02:45:40;;;;;;;20.65;8.65;;;7.70;99.90;;;7.82;85.55;100465.13;5079259;28;20446;-83
2023/12/20 02:48:08;;;;;;;17.10;8.15;;;7.70;99.90;;;7.68;84.58;100470.34;5079909;28;20299;-83
2023/12/20 02:50:35;;;;;;;22.77;8.68;;;7.70;99.90;;;7.62;84.85;100476.41;5077788;28;20098;-83
2023/12/20 02:53:03;;;;;;;30.80;9.27;;;7.60;99.90;;;7.68;85.20;100483.63;5077908;28;20567;-83
2023/12/20 02:55:30;;;;;;;25.35;8.63;;;7.60;99.90;;;7.67;85.08;100473.19;5077811;28;20070;-83
2023/12/20 02:57:59;;;;;;;25.25;8.50;;;7.60;99.90;;;7.70;85.03;100468.31;5078380;28;20040;-83
2023/12/20 03:00:26;;;;;;;22.90;8.93;;;7.70;99.90;;;7.60;84.87;100477.63;5077410;28;20126;-83
2023/12/20 03:02:53;;;;;;;30.77;9.02;;;7.60;99.90;;;7.67;85.20;100473.19;5078184;28;20054;-83
2023/12/20 03:05:21;;;;;;;23.70;8.77;;;7.60;99.90;;;7.65;84.62;100481.31;5078156;28;20036;-83
2023/12/20 03:07:49;;;;;;;23.58;8.10;;;7.60;99.90;;;7.66;84.66;100485.66;5077838;28;20063;-84
2023/12/20 03:10:16;;;;;;;28.48;8.68;;;7.60;99.90;;;7.65;84.51;100469.91;5077854;28;20098;-83
2023/12/20 03:12:43;;;;;;;28.10;8.00;;;7.60;99.90;;;7.66;84.99;100461.75;5076875;28;20040;-83
2023/12/20 03:15:13;;;;;;;22.70;8.05;;;7.60;99.90;;;7.67;84.60;100460.75;5077157;28;20041;-83
2023/12/20 03:17:40;;;;;;;20.15;7.20;;;7.60;99.90;;;7.52;84.34;100470.63;5077467;28;20044;-83
2023/12/20 03:20:09;;;;;;;21.88;7.80;;;7.50;99.90;;;7.53;84.71;100472.25;5076731;28;20049;-83
2023/12/20 03:22:37;;;;;;;28.67;8.75;;;7.50;99.90;;;7.45;84.32;100470.53;5076717;28;20098;-83
2023/12/20 03:25:05;;;;;;;22.42;7.50;;;7.40;99.90;;;7.52;84.60;100467.16;5077017;28;20075;-83
2023/12/20 03:27:32;;;;;;;20.60;7.13;;;7.50;99.90;;;7.40;83.96;100477.44;5077199;28;20458;-83
2023/12/20 03:29:59;;;;;;;25.52;7.57;;;7.40;99.90;;;7.34;84.01;100476.38;5078094;28;20123;-83
2023/12/20 03:32:28;;;;;;;23.80;7.30;;;7.40;99.90;;;7.42;84.75;100480.75;5078301;28;20049;-83
2023/12/20 03:34:55;;;;;;;21.13;7.15;;;7.40;99.90;;;7.51;84.79;100465.50;5077692;28;20120;-83
2023/12/20 03:37:24;;;;;;;26.33;7.47;;;7.40;99.90;;;7.51;84.45;100465.50;5043144;28;20036;-83
2023/12/20 03:39:51;;;;;;;17.65;6.75;;;7.40;99.90;;;7.57;84.64;100464.75;5076855;28;20052;-83
2023/12/20 03:42:19;;;;;;;17.95;6.93;;;7.40;99.90;;;7.50;83.73;100467.31;5077693;28;20048;-83
2023/12/20 03:44:46;;;;;;;23.08;6.85;;;7.50;99.90;;;7.39;83.28;100465.19;5076030;28;20042;-83
2023/12/20 03:47:14;;;;;;;22.15;6.00;;;7.40;99.90;;;7.44;83.81;100454.81;5059258;28;20037;-83
2023/12/20 03:49:43;;;;;;;25.00;6.45;;;7.40;99.90;;;7.53;83.92;100464.31;5076145;28;20041;-83
2023/12/20 03:52:10;;;;;;;20.33;6.40;;;7.50;99.90;;;7.45;83.72;100467.06;5077403;28;20041;-83
2023/12/20 03:54:37;;;;;;;21.17;5.90;;;7.40;99.90;;;7.46;83.45;100458.91;5077402;28;20049;-83
2023/12/20 03:57:05;;;;;;;17.98;5.78;;;7.40;99.90;;;7.48;83.48;100462.22;5059205;28;20047;-83
2023/12/20 03:59:37;;;;;;;21.00;5.30;;;7.40;99.90;;;7.52;83.76;100467.16;5077253;28;20124;-83
2023/12/20 04:02:05;;;;;;;16.73;5.60;;;7.40;99.90;;;7.55;83.07;100470.22;5042252;28;20045;-83
2023/12/20 04:04:32;;;;;;;22.40;6.25;;;7.40;99.90;;;7.48;82.83;100464.88;5076871;28;20122;-84
2023/12/20 04:07:01;;;;;;;18.38;5.47;;;7.30;99.90;;;7.49;82.97;100465.69;5077465;28;20087;-83
2023/12/20 04:09:30;;;;;;;18.38;5.50;;;7.40;99.90;;;7.44;83.07;100462.78;5077765;28;20071;-83
2023/12/20 04:11:57;;;;;;;24.15;6.90;;;7.30;99.90;;;7.47;82.82;100467.72;5077353;28;20123;-83
2023/12/20 04:14:24;;;;;;;17.70;6.50;;;7.30;99.90;;;7.44;82.49;100460.94;5078138;28;20107;-83
2023/12/20 04:16:52;;;;;;;23.85;7.47;;;7.40;99.90;;;7.40;82.29;100465.00;5077996;28;20453;-83
2023/12/20 04:19:19;;;;;;;22.15;7.75;;;7.30;99.90;;;7.35;82.52;100461.28;5076522;28;20105;-83
2023/12/20 04:21:48;;;;;;;29.40;7.80;;;7.20;99.90;;;7.41;82.56;100445.41;5076372;28;20503;-83
2023/12/20 04:24:17;;;;;;;28.25;7.65;;;7.30;99.90;;;7.40;82.34;100446.41;5077441;28;20048;-83
2023/12/20 04:26:44;;;;;;;26.88;7.30;;;7.20;99.90;;;7.33;82.02;100450.03;5076425;28;20496;-83
2023/12/20 04:29:12;;;;;;;23.92;6.95;;;7.20;99.90;;;7.31;82.96;100452.88;5042696;28;20098;-83
2023/12/20 04:31:41;;;;;;;24.70;6.70;;;7.20;99.90;;;7.38;83.06;100448.47;5075646;28;20111;-83
2023/12/20 04:34:08;;;;;;;23.40;6.68;;;7.20;99.90;;;7.26;82.22;100451.78;5075703;28;20174;-83
2023/12/20 04:36:37;;;;;;;25.10;6.07;;;7.20;99.90;;;7.28;83.30;100447.13;5076944;28;20044;-83
2023/12/20 04:39:04;;;;;;;27.90;6.60;;;7.20;99.90;;;7.33;83.25;100455.34;5076282;28;20047;-83
2023/12/20 04:41:33;;;;;;;25.90;6.60;;;7.20;99.90;;;7.25;82.88;100455.47;5076970;28;20072;-83
2023/12/20 04:44:00;;;;;;;21.45;6.63;;;7.20;99.90;;;7.18;83.18;100458.88;5058652;28;20565;-83
2023/12/20 04:46:28;;;;;;;32.17;7.07;;;7.10;99.90;;;7.10;83.42;100461.66;5077541;28;20401;-83
2023/12/20 04:48:55;;;;;;;26.13;7.85;;;7.10;99.90;;;7.14;83.92;100457.63;5077559;28;20090;-83
2023/12/20 04:51:23;;;;;;;26.67;7.72;;;7.10;99.90;;;7.21;83.98;100461.13;5077504;28;20036;-83
2023/12/20 04:53:50;;;;;;;23.48;7.53;;;7.20;99.90;;;7.28;83.95;100457.75;5075410;28;20555;-83
2023/12/20 04:56:17;;;;;;;30.55;8.10;;;7.20;99.90;;;7.13;83.57;100460.47;5077308;28;20064;-83
2023/12/20 04:58:46;;;;;;;26.08;8.23;;;7.20;99.90;;;7.18;84.26;100464.19;5077297;28;20041;-83
2023/12/20 05:01:15;;;;;;;31.10;9.00;;;7.10;99.90;;;7.16;83.78;100466.19;5075741;28;20115;-83
2023/12/20 05:03:43;;;;;;;25.05;8.25;;;7.10;99.90;;;7.20;83.86;100467.47;5079723;28;20499;-83
2023/12/20 05:06:11;;;;;;;24.95;8.52;;;7.20;99.90;;;7.15;83.62;100469.84;5081113;28;20491;-83
2023/12/20 05:08:38;;;;;;;27.20;7.95;;;7.20;99.90;;;7.22;83.94;100476.06;5081649;28;20076;-83
2023/12/20 05:11:06;;;;;;;21.15;7.38;;;7.20;99.90;;;7.19;83.65;100465.81;5081209;28;20047;-84
2023/12/20 05:13:33;;;;;;;24.13;7.65;;;7.20;99.90;;;7.18;83.43;100468.69;5078434;28;20045;-83
2023/12/20 05:16:03;;;;;;;29.80;7.97;;;7.20;99.90;;;7.22;83.73;100468.09;5028999;28;20483;-83
2023/12/20 05:18:30;;;;;;;26.58;8.00;;;7.20;99.90;;;7.29;83.66;100462.03;5078876;28;20504;-86
2023/12/20 05:20:57;;;;;;;23.95;8.68;;;7.20;99.90;;;7.26;82.97;100468.53;5079210;28;20048;-84
2023/12/20 05:23:25;;;;;;;29.60;8.38;;;7.30;99.90;;;7.20;82.95;100466.66;5080974;28;20044;-84
2023/12/20 05:25:52;;;;;;;24.58;9.05;;;7.20;99.90;;;7.21;83.37;100474.41;5079964;28;20071;-84
2023/12/20 05:28:20;;;;;;;33.53;9.48;;;7.20;99.90;;;7.25;83.59;100468.72;5080215;28;20055;-84
2023/12/20 05:30:47;;;;;;;24.45;9.20;;;7.20;99.90;;;7.29;83.34;100473.47;5062096;28;20056;-85
2023/12/20 05:33:16;;;;;;;31.40;9.32;;;7.20;99.90;;;7.23;83.33;100461.78;5081043;28;20044;-85
2023/12/20 05:35:46;;;;;;;30.73;9.13;;;7.20;99.90;;;7.29;83.44;100470.81;5079907;28;20036;-85
2023/12/20 05:38:23;;;;;;;30.25;10.05;;;7.20;99.90;;;7.25;82.94;100460.78;5079666;28;20055;-85
2023/12/20 05:40:51;;;;;;;25.25;8.52;;;7.20;99.90;;;7.20;82.88;100458.69;5063848;28;20422;-85
2023/12/20 05:43:18;;;;;;;21.85;8.52;;;7.20;99.90;;;7.19;82.89;100449.91;5079035;28;20044;-84
2023/12/20 05:45:46;;;;;;;21.60;8.90;;;7.20;99.90;;;7.23;83.36;100443.22;5078623;28;20055;-85
2023/12/20 05:48:16;;;;;;;34.70;9.88;;;7.10;99.90;;;7.20;82.84;100453.38;5077770;28;20067;-85
2023/12/20 05:50:43;;;;;;;26.15;9.15;;;7.10;99.90;;;7.17;83.07;100448.44;5080340;28;20067;-85
2023/12/20 05:53:11;;;;;;;27.20;9.63;;;7.10;99.90;;;7.21;83.38;100453.19;5078487;28;20123;-86
2023/12/20 05:55:38;;;;;;;28.13;9.70;;;7.10;99.90;;;7.11;83.03;100455.34;5078578;28;20450;-85
2023/12/20 05:58:06;;;;;;;27.58;9.05;;;7.10;99.90;;;7.19;83.51;100459.69;5076997;28;20037;-85
2023/12/20 06:00:33;;;;;;;25.65;9.63;;;7.10;99.90;;;7.21;83.44;100457.66;5060698;28;20063;-85
2023/12/20 06:03:00;;;;;;;30.58;9.80;;;7.10;99.90;;;7.23;83.23;100456.47;5077030;28;20041;-85
2023/12/20 06:05:30;;;;;;;33.90;9.32;;;7.10;99.90;;;7.16;83.18;100455.59;5076862;28;20123;-85
2023/12/20 06:08:01;;;;;;;29.33;9.43;;;7.20;99.90;;;7.13;83.18;100453.34;5060601;28;20505;-85
2023/12/20 06:10:28;;;;;;;29.42;9.18;;;7.10;99.90;;;7.09;83.01;100446.75;5078940;28;20037;-85
2023/12/20 06:12:58;;;;;;;24.38;8.50;;;7.10;99.90;;;7.03;83.39;100450.16;5060070;28;20495;-85
2023/12/20 06:15:25;;;;;;;29.15;9.38;;;7.10;99.90;;;7.03;83.52;100462.56;5078436;28;20462;-85
2023/12/20 06:17:53;;;;;;;27.13;8.88;;;7.00;99.90;;;7.08;83.74;100458.38;5077292;28;20135;-85
2023/12/20 06:20:21;;;;;;;26.38;8.68;;;7.10;99.90;;;7.12;83.58;100467.56;5077657;28;20049;-85
2023/12/20 06:22:50;;;;;;;25.23;9.32;;;7.10;99.90;;;7.13;83.96;100465.78;5077200;28;20146;-85
2023/12/20 06:25:18;;;;;;;25.20;8.63;;;7.10;99.90;;;7.17;83.81;100461.69;5076719;28;20048;-85
2023/12/20 06:27:45;;;;;;;28.35;8.65;;;7.10;99.90;;;7.12;83.17;100451.66;5077177;28;20072;-85
2023/12/20 06:30:13;;;;;;;24.70;8.93;;;7.10;99.90;;;7.02;83.24;100453.81;5077645;28;20124;-85
2023/12/20 06:32:42;;;;;;;28.67;9.43;;;7.00;99.90;;;7.09;83.77;100459.19;5076850;28;20040;-85
2023/12/20 06:35:10;;;;;;;34.47;9.68;;;7.10;99.90;;;6.96;83.22;100468.63;5076599;28;20046;-85
2023/12/20 06:37:37;;;;;;;23.45;8.25;;;7.00;99.90;;;7.02;83.76;100453.00;5076882;28;20072;-85
2023/12/20 06:40:13;;;;;;;18.75;7.88;;;7.00;99.90;;;7.05;83.64;100458.75;5076624;28;20114;-85
2023/12/20 06:42:42;;;;;;;27.73;8.57;;;7.10;99.90;;;7.09;83.28;100452.06;5077281;28;20059;-85
2023/12/20 06:45:10;;;;;;;29.75;9.30;;;7.10;99.90;;;7.10;83.71;100458.19;5060908;28;20040;-84
2023/12/20 06:47:38;;;;;;;34.92;8.75;;;7.10;99.90;;;7.11;83.23;100460.63;5076322;28;20044;-84
2023/12/20 06:50:08;;;;;;;25.67;9.02;;;7.10;99.90;;;7.00;83.40;100465.63;5077657;28;20068;-84
2023/12/20 06:52:35;;;;;;;29.80;8.98;;;7.00;99.90;;;7.03;83.83;100462.56;5076787;28;20562;-84
2023/12/20 06:55:03;;;;;;;24.55;9.27;;;7.10;99.90;;;6.92;83.64;100459.41;5075353;28;20041;-84
2023/12/20 06:57:33;;;;;;;21.05;8.88;;;7.00;99.90;;;6.97;84.01;100467.63;5075631;28;20044;-85
2023/12/20 07:00:00;;;;;;;26.67;8.90;;;7.00;99.90;;;6.85;83.56;100447.94;5076151;28;20048;-84
2023/12/20 07:02:30;;;;;;;27.10;8.98;;;7.00;99.90;;;6.91;84.37;100452.47;5077189;28;20403;-84
2023/12/20 07:04:58;;;;;;;27.95;9.00;;;7.00;99.90;;;6.97;84.39;100462.31;5075180;28;20142;-85
2023/12/20 07:07:26;;;;;;;23.05;8.60;;;7.00;99.90;;;6.97;83.99;100456.19;5059167;28;20048;-85
2023/12/20 07:09:54;;;;;;;21.55;8.85;;;7.00;99.90;;;7.01;84.31;100451.34;5075142;28;20578;-85
2023/12/20 07:12:21;;;;;;;25.17;8.10;;;7.10;99.90;;;7.01;83.49;100452.16;5075921;28;20512;-84
2023/12/20 07:14:50;;;;;;;22.58;7.90;;;7.10;99.90;;;7.06;84.07;100449.78;5075495;28;20047;-84
2023/12/20 07:17:18;;;;;;;22.17;7.38;;;7.10;99.90;;;7.07;83.75;100453.25;5075641;28;20040;-85
2023/12/20 07:19:45;;;;;;;27.13;8.38;;;7.10;99.90;;;7.07;84.00;100448.75;5041696;28;20053;-84
2023/12/20 07:22:13;;;;;;;30.88;7.63;;;7.10;99.90;;;7.03;83.70;100439.56;5075024;28;20124;-84
2023/12/20 07:24:40;;;;;;;26.23;8.35;;;7.10;99.90;;;7.00;83.64;100439.94;5075924;28;20045;-84
2023/12/20 07:27:08;;;;;;;27.35;7.85;;;7.10;99.90;;;6.88;83.61;100446.72;5075018;28;20044;-85
2023/12/20 07:29:37;;;;;;;23.70;7.97;;;7.30;99.90;;;6.93;83.92;100445.19;5074283;28;20565;-85
2023/12/20 07:32:08;;;;;;;33.35;8.05;;;7.00;99.90;;;6.97;84.55;100451.72;5074378;28;20075;-84
2023/12/20 07:34:35;;;;;;;;;;;7.10;99.90;;;7.03;84.32;100449.31;5058513;28;20048;-85
2023/12/20 07:37:03;;;;;;;31.17;8.02;;;7.10;99.90;;;7.09;84.32;100452.06;5075561;28;20010;-84
2023/12/20 07:39:31;;;;;;;24.25;8.15;;;7.10;99.90;;;7.09;83.62;100454.72;5074953;28;20123;-84
2023/12/20 07:41:58;;;;;;;34.60;9.18;;;7.10;99.90;;;7.05;83.73;100456.09;5076072;28;20566;-84
2023/12/20 07:44:25;;;;;;;26.88;7.60;;;7.10;99.90;;;7.14;83.72;100456.78;5076345;28;20110;-84
2023/12/20 07:46:53;;;;;;;34.75;7.70;;;7.20;99.90;;;7.09;83.96;100460.00;5074170;28;20037;-85
2023/12/20 07:49:23;;;;;;;29.05;8.10;;;7.10;99.90;;;7.09;83.71;100460.00;5073974;28;20049;-84
2023/12/20 07:51:50;;;;;;;22.33;9.10;;;7.10;99.90;;;7.06;83.65;100460.38;5074772;28;20131;-84
2023/12/20 07:54:17;;;;;;;32.00;8.57;;;7.10;99.90;;;7.10;84.09;100466.94;5075950;28;20127;-85
2023/12/20 07:56:47;;;;;;;29.40;9.35;;;7.10;99.90;;;7.06;83.39;100463.03;5076024;28;20122;-84
2023/12/20 07:59:15;;;;;;;21.20;7.45;;;7.10;99.90;;;7.12;83.89;100459.63;5074523;28;20160;-84
2023/12/20 08:01:43;;;;;;;23.90;8.05;;;7.10;99.90;;;7.08;83.65;100462.88;5076060;28;20094;-84
2023/12/20 08:04:11;;;;;;;24.23;7.93;;;7.10;99.90;;;7.12;84.16;100453.50;5075973;28;20044;-84
2023/12/20 08:06:40;;;;;;;22.25;7.28;;;7.20;99.90;;;7.13;83.76;100447.22;5077642;28;20052;-84
2023/12/20 08:09:07;;;;;;;28.98;8.15;;;7.20;99.90;;;7.15;83.70;100458.44;5077326;28;20072;-84
2023/12/20 08:11:37;;;;;;;25.35;8.00;;;7.20;99.90;;;7.09;83.66;100441.44;5057836;28;20044;-85
2023/12/20 08:14:05;;;;;;;32.97;7.88;;;7.20;99.90;;;7.10;83.81;100458.19;5074572;28;20076;-84
2023/12/20 08:16:33;;;;;;;27.80;7.47;;;7.20;99.90;;;7.12;83.60;100464.09;5075797;28;20048;-84
2023/12/20 08:19:01;;;;;;;29.30;7.82;;;7.20;99.90;;;7.12;83.75;100448.19;5076282;28;20040;-84
2023/12/20 08:21:28;;;;;;;30.60;7.55;;;7.20;99.90;;;7.09;83.63;100454.72;5076867;28;20456;-85
2023/12/20 08:23:57;;;;;;;27.27;7.78;;;7.20;99.90;;;7.08;83.68;100455.72;5075946;28;20098;-84
2023/12/20 08:26:24;;;;;;;24.15;7.82;;;7.10;99.90;;;7.15;83.60;100453.94;5075230;28;20045;-84
2023/12/20 08:28:52;;;;;;;22.40;7.60;;;7.20;99.90;;;7.10;83.33;100456.34;5074235;28;20041;-84
2023/12/20 08:31:20;;;;;;;31.95;7.72;;;7.20;99.90;;;7.10;83.55;100460.84;5074392;28;20049;-84
2023/12/20 08:33:50;;;;;;;23.70;7.13;;;7.20;99.90;;;7.13;83.76;100457.81;5073930;28;20048;-85
2023/12/20 08:36:18;;;;;;;24.73;8.40;;;7.20;99.90;;;7.22;83.39;100457.50;5075111;28;20045;-84
2023/12/20 08:38:46;;;;;;;29.83;7.82;;;7.30;99.90;;;7.20;83.18;100462.16;5075978;28;20033;-84
2023/12/20 08:41:18;;;;;;;28.05;8.55;;;7.30;99.90;;;7.18;83.08;100455.41;5074687;28;20090;-84
2023/12/20 08:43:45;;;;;;;28.73;9.00;;;7.30;99.90;;;7.16;83.13;100465.38;5058544;28;20510;-85
2023/12/20 08:46:14;;;;;;;28.40;8.75;;;7.30;99.90;;;7.07;83.48;100469.16;5074553;28;20106;-84
2023/12/20 08:48:41;;;;;;;28.08;8.32;;;7.20;99.90;;;7.06;83.63;100467.53;5075434;28;20041;-85
2023/12/20 08:51:12;;;;;;;38.22;10.02;;;7.20;99.90;;;7.07;83.28;100467.31;5074691;28;20070;-84
2023/12/20 08:53:39;;;;;;;24.42;8.43;;;7.20;99.90;;;7.11;83.66;100468.59;5024409;28;20051;-85
2023/12/20 08:56:07;;;;;;;29.02;7.55;;;7.20;99.90;;;7.02;83.32;100459.09;5074654;28;20098;-84
2023/12/20 08:58:36;;;;;;;27.00;8.18;;;7.20;99.90;;;7.01;82.88;100459.31;5075213;28;20040;-85
2023/12/20 09:01:04;;;;;;;26.63;7.65;;;7.20;99.90;;;7.04;83.41;100451.00;5075686;28;20507;-85
2023/12/20 09:03:31;;;;;;;26.98;7.45;;;7.20;99.90;;;7.05;83.11;100450.78;5074810;28;20068;-84
2023/12/20 09:05:59;;;;;;;27.35;7.22;;;7.20;99.90;;;7.07;83.16;100458.53;5075237;28;20416;-85
2023/12/20 09:08:28;;;;;;;28.15;6.90;;;7.20;99.90;;;7.11;82.86;100449.22;5074479;28;20036;-84
2023/12/20 09:10:56;;;;;;;28.85;7.50;;;7.20;99.90;;;7.05;82.59;100452.63;5056880;28;20093;-84
2023/12/20 09:13:27;;;;;;;22.95;7.65;;;7.20;99.90;;;7.08;nan;100450.44;5075354;28;20064;-85
2023/12/20 09:15:57;;;;;;;28.23;7.30;;;7.30;99.90;;;7.11;82.97;100452.69;5075191;28;20055;-85
2023/12/20 09:18:25;;;;;;;20.00;7.03;;;7.30;99.90;;;7.21;82.89;100445.22;5057114;28;20131;-84
2023/12/20 09:20:53;;;;;;;23.38;6.90;;;7.30;99.90;;;7.15;82.02;100451.28;5073237;28;20071;-84
2023/12/20 09:23:20;;;;;;;27.13;7.57;;;7.30;99.90;;;7.12;82.48;100443.72;5039988;28;20090;-84
2023/12/20 09:25:48;;;;;;;24.27;6.95;;;7.30;99.90;;;7.13;82.58;100445.38;5073234;28;20049;-84
2023/12/20 09:28:16;;;;;;;24.58;6.93;;;7.30;99.90;;;7.08;82.07;100447.78;5056357;28;20068;-84
2023/12/20 09:30:45;;;;;;;26.40;6.57;;;7.30;99.90;;;7.09;82.56;100459.19;5074418;28;20562;-84
2023/12/20 09:33:16;;;;;;;29.92;7.15;;;7.30;99.90;;;7.15;82.48;100459.25;5072653;28;20128;-85
2023/12/20 09:35:43;;;;;;;18.88;6.78;;;7.40;99.90;;;7.25;82.67;100447.50;5054279;28;20482;-85
2023/12/20 09:38:12;;;;;;;25.63;5.93;;;7.40;99.90;;;7.29;82.12;100446.13;5054963;28;20459;-84
2023/12/20 09:40:43;;;;;;;21.52;6.65;;;7.40;99.90;;;7.22;81.45;100438.94;5055418;28;20072;-84
2023/12/20 09:43:15;;;;;;;26.15;7.07;;;7.30;99.90;;;7.17;81.74;100443.13;5055332;28;20065;-84
2023/12/20 09:45:46;;;;;;;25.63;6.80;;;7.30;99.90;;;7.18;81.82;100440.31;5054513;28;20052;-84
2023/12/20 09:48:19;;;;;;;28.60;6.38;;;7.30;99.90;;;7.16;81.64;100439.66;5054752;28;20083;-85
2023/12/20 09:50:48;;;;;;;28.38;6.60;;;7.30;99.90;;;7.16;82.09;100431.72;5056467;28;20050;-84
2023/12/20 09:53:18;;;;;;;25.52;6.70;;;7.30;99.90;;;7.18;82.51;100448.28;5059202;28;20106;-85
2023/12/20 09:55:46;;;;;;;23.35;6.70;;;7.30;99.90;;;7.29;82.66;100443.47;5057997;28;20048;-84
2023/12/20 09:58:14;;;;;;;25.23;5.95;;;7.40;99.90;;;7.36;82.52;100442.50;5056484;28;20037;-84
2023/12/20 10:00:42;;;;;;;30.45;6.43;;;7.40;99.90;;;7.40;82.24;100453.56;5058209;28;20055;-84
2023/12/20 10:03:13;;;;;;;25.33;6.82;;;7.50;99.90;;;7.42;81.98;100448.91;5058834;28;20128;-85
2023/12/20 10:05:45;;;;;;;24.67;6.20;;;7.60;99.90;;;7.26;81.70;100451.78;5062941;28;20114;-84
2023/12/20 10:08:13;;;;;;;29.50;7.55;;;7.40;99.90;;;7.23;82.03;100445.06;5075504;28;20132;-84
2023/12/20 10:10:41;;;;;;;30.23;7.43;;;7.40;99.90;;;7.19;82.18;100447.25;5077366;28;20105;-84
2023/12/20 10:13:11;;;;;;;26.98;6.82;;;7.40;99.90;;;7.28;82.35;100436.53;5043773;28;20045;-84
2023/12/20 10:15:40;;;;;;;24.08;5.53;;;7.40;99.90;;;7.23;82.29;100443.22;5077790;28;20040;-84
2023/12/20 10:18:08;;;;;;;29.92;7.35;;;7.40;99.90;;;7.27;82.37;100442.81;5079586;28;20076;-84
2023/12/20 10:20:35;;;;;;;28.00;6.90;;;7.40;99.90;;;7.34;82.43;100441.88;5077377;28;20052;-84